Time;durP1;ratioP1;P1;durP2;ratioP2;P2;SDS_P1;SDS_P2;PMS_P1;PMS_P2;Temp;Humidity;BMP_temperature;BMP_pressure;BME280_temperature;BME280_humidity;BME280_pressure;Samples;Min_cycle;Max_cycle;Signal;HPM_P1;HPM_P2
2023/12/27 00:01:28;;;;;;;20.92;13.55;;;;;;;-146.58;100.00;69501.63;5033265;28;20021;-64
2023/12/27 00:03:54;;;;;;;22.65;13.40;;;;;;;-146.58;100.00;69501.63;5031344;28;20034;-64
2023/12/27 00:06:19;;;;;;;21.20;12.77;;;;;;;-146.58;100.00;69501.63;5033212;28;20033;-64
2023/12/27 00:08:45;;;;;;;19.15;12.68;;;;;;;-146.58;100.00;69501.63;5031950;28;20389;-61
2023/12/27 00:11:11;;;;;;;31.42;13.98;;;;;;;-146.58;100.00;69501.63;5032967;28;20476;-64
2023/12/27 00:13:36;;;;;;;15.52;12.43;;;;;;;-146.58;100.00;69501.63;5032980;28;20022;-64
2023/12/27 00:16:01;;;;;;;16.00;11.98;;;;;;;-146.58;100.00;69501.63;5031542;28;20084;-64
2023/12/27 00:18:27;;;;;;;19.13;13.38;;;;;;;-146.58;100.00;69501.63;5032732;28;20053;-64
2023/12/27 00:20:52;;;;;;;31.35;12.35;;;;;;;-146.58;100.00;69501.63;5045473;28;20460;-64
2023/12/27 00:23:17;;;;;;;89.50;17.35;;;;;;;-146.58;100.00;69501.63;5052843;28;20029;-64
2023/12/27 00:25:43;;;;;;;13.38;10.77;;;;;;;-146.58;100.00;69501.63;5051004;28;20045;-64
2023/12/27 00:28:08;;;;;;;15.70;10.75;;;;;;;-146.58;100.00;69501.63;5037550;28;20029;-64
2023/12/27 00:30:34;;;;;;;11.98;9.68;;;;;;;-146.58;100.00;69501.63;5031073;28;20413;-64
2023/12/27 00:33:00;;;;;;;17.30;10.02;;;;;;;-146.58;100.00;69501.63;5032968;28;20461;-63
2023/12/27 00:35:25;;;;;;;23.52;11.40;;;;;;;-146.58;100.00;69501.63;5043627;28;20037;-65
2023/12/27 00:37:50;;;;;;;21.33;12.27;;;;;;;-146.58;100.00;69501.63;5052635;28;20049;-65
2023/12/27 00:40:16;;;;;;;19.27;13.10;;;;;;;-146.58;100.00;69501.63;5050922;28;20523;-65
2023/12/27 00:42:41;;;;;;;20.08;11.55;;;;;;;-146.58;100.00;69501.63;5048354;28;20048;-65
2023/12/27 00:45:07;;;;;;;35.55;15.15;;;;;;;-146.58;100.00;69501.63;5031298;28;20095;-65
2023/12/27 00:47:32;;;;;;;21.13;12.27;;;;;;;-146.58;100.00;69501.63;5032537;28;20040;-64
2023/12/27 00:49:58;;;;;;;26.00;14.85;;;;;;;-146.58;100.00;69501.63;5036964;28;20037;-65
2023/12/27 00:52:23;;;;;;;37.38;12.88;;;;;;;-146.58;100.00;69501.63;5052451;28;20029;-65
2023/12/27 00:54:49;;;;;;;299.83;39.05;;;;;;;-146.58;100.00;69501.63;5051047;28;20044;-65
2023/12/27 00:57:14;;;;;;;62.28;14.85;;;;;;;-146.58;100.00;69501.63;5051906;28;20029;-64
2023/12/27 00:59:39;;;;;;;19.42;10.05;;;;;;;-146.58;100.00;69501.63;5050696;28;20033;-65
2023/12/27 01:02:06;;;;;;;11.27;9.73;;;;;;;-146.58;100.00;69501.63;5052397;28;20484;-65
2023/12/27 01:04:32;;;;;;;13.25;10.07;;;;;;;-146.58;100.00;69501.63;5033234;28;20049;-65
2023/12/27 01:06:58;;;;;;;14.55;11.48;;;;;;;-146.58;100.00;69501.63;5032042;28;20473;-65
2023/12/27 01:09:23;;;;;;;14.05;10.38;;;;;;;-146.58;100.00;69501.63;5030556;28;20048;-65
2023/12/27 01:11:48;;;;;;;50.83;15.07;;;;;;;-146.58;100.00;69501.63;5031825;28;20436;-65
2023/12/27 01:14:16;;;;;;;56.83;15.13;;;;;;;-146.58;100.00;69501.63;5030339;28;20053;-65
2023/12/27 01:16:42;;;;;;;12.50;9.85;;;;;;;-146.58;100.00;69501.63;5031422;28;20037;-64
2023/12/27 01:19:07;;;;;;;13.30;11.85;;;;;;;-146.58;100.00;69501.63;5030437;28;20049;-65
2023/12/27 01:21:32;;;;;;;17.67;10.40;;;;;;;-146.58;100.00;69501.63;5031926;28;20103;-65
2023/12/27 01:23:58;;;;;;;19.35;11.75;;;;;;;-146.58;100.00;69501.63;5030430;28;20037;-65
2023/12/27 01:26:23;;;;;;;12.85;10.50;;;;;;;-146.58;100.00;69501.63;5031188;28;20032;-65
2023/12/27 01:28:48;;;;;;;14.15;10.45;;;;;;;-146.58;100.00;69501.63;5030583;28;20432;-64
2023/12/27 01:31:14;;;;;;;16.83;10.48;;;;;;;-146.58;100.00;69501.63;5032061;28;20025;-65
2023/12/27 01:33:40;;;;;;;17.95;11.05;;;;;;;-146.58;100.00;69501.63;5031334;28;20027;-63
2023/12/27 01:36:07;;;;;;;28.10;14.30;;;;;;;-146.58;100.00;69501.63;5030449;28;20053;-63
2023/12/27 01:38:32;;;;;;;12.63;10.60;;;;;;;-146.58;100.00;69501.63;5031400;28;20451;-63
2023/12/27 01:40:59;;;;;;;13.55;10.50;;;;;;;-146.58;100.00;69501.63;5029679;28;20037;-63
2023/12/27 01:43:24;;;;;;;13.45;12.02;;;;;;;-146.58;100.00;69501.63;5039880;28;20032;-63
2023/12/27 01:45:52;;;;;;;19.20;12.93;;;;;;;-146.58;100.00;69501.63;5050174;28;20075;-63
2023/12/27 01:48:21;;;;;;;14.23;10.10;;;;;;;-146.58;100.00;69501.63;5051388;28;20031;-63
2023/12/27 01:50:48;;;;;;;25.23;13.85;;;;;;;-146.58;100.00;69501.63;5037424;28;20081;-63
2023/12/27 01:53:15;;;;;;;20.98;12.63;;;;;;;-146.58;100.00;69501.63;5031596;28;20025;-63
2023/12/27 01:55:40;;;;;;;38.75;14.77;;;;;;;-146.58;100.00;69501.63;5029325;28;20950;-63
2023/12/27 01:58:10;;;;;;;92.30;19.73;;;;;;;-146.58;100.00;69501.63;5031460;28;20021;-63
2023/12/27 02:00:41;;;;;;;21.20;12.60;;;;;;;-146.58;100.00;69501.63;5029747;28;20512;-63
2023/12/27 02:03:07;;;;;;;45.83;15.48;;;;;;;-146.58;100.00;69501.63;5031038;28;20104;-63
2023/12/27 02:05:34;;;;;;;30.05;14.75;;;;;;;-146.58;100.00;69501.63;5029553;28;20068;-63
2023/12/27 02:07:59;;;;;;;19.08;12.43;;;;;;;-146.58;100.00;69501.63;5031312;28;20501;-63
2023/12/27 02:10:26;;;;;;;16.52;13.65;;;;;;;-146.58;100.00;69501.63;5028881;28;20120;-63
2023/12/27 02:12:51;;;;;;;19.45;12.93;;;;;;;-146.58;100.00;69501.63;5031571;28;20021;-63
2023/12/27 02:15:16;;;;;;;15.40;11.73;;;;;;;-146.58;100.00;69501.63;5029697;28;20489;-63
2023/12/27 02:17:43;;;;;;;22.48;16.52;;;;;;;-146.58;100.00;69501.63;5030579;28;20075;-63
2023/12/27 02:20:09;;;;;;;17.33;13.25;;;;;;;-146.58;100.00;69501.63;5040486;28;20033;-63
2023/12/27 02:22:35;;;;;;;23.05;13.20;;;;;;;-146.58;100.00;69501.63;5050652;28;20036;-63
2023/12/27 02:25:01;;;;;;;16.75;13.38;;;;;;;-146.58;100.00;69501.63;5049084;28;20176;-63
2023/12/27 02:27:26;;;;;;;14.50;12.15;;;;;;;-146.58;100.00;69501.63;5050520;28;20020;-63
2023/12/27 02:29:51;;;;;;;13.52;11.85;;;;;;;-146.58;100.00;69501.63;5049537;28;20045;-63
2023/12/27 02:32:17;;;;;;;16.55;11.35;;;;;;;-146.58;100.00;69501.63;5050365;28;20404;-63
2023/12/27 02:34:42;;;;;;;25.60;13.77;;;;;;;-146.58;100.00;69501.63;5048881;28;20045;-64
2023/12/27 02:37:07;;;;;;;17.08;12.40;;;;;;;-146.58;100.00;69501.63;5038813;28;20052;-63
2023/12/27 02:39:33;;;;;;;20.05;15.07;;;;;;;-146.58;100.00;69501.63;5042686;28;20049;-63
2023/12/27 02:41:58;;;;;;;16.08;12.30;;;;;;;-146.58;100.00;69501.63;5050923;28;20025;-63
2023/12/27 02:44:26;;;;;;;13.88;12.40;;;;;;;-146.58;100.00;69501.63;5048930;28;20400;-63
2023/12/27 02:46:52;;;;;;;21.13;12.65;;;;;;;-146.58;100.00;69501.63;5050468;28;20078;-63
2023/12/27 02:49:17;;;;;;;11.40;10.20;;;;;;;-146.58;100.00;69501.63;5045283;28;20041;-64
2023/12/27 02:51:43;;;;;;;15.13;11.63;;;;;;;-146.58;100.00;69501.63;5030556;28;20060;-64
2023/12/27 02:54:09;;;;;;;16.95;13.05;;;;;;;-146.58;100.00;69501.63;5028940;28;20047;-63
2023/12/27 02:56:34;;;;;;;15.00;11.77;;;;;;;-146.58;100.00;69501.63;5030211;28;20099;-63
2023/12/27 02:58:59;;;;;;;15.93;10.77;;;;;;;-146.58;100.00;69501.63;5029354;28;20018;-63
2023/12/27 03:01:25;;;;;;;13.15;9.88;;;;;;;-146.58;100.00;69501.63;5030110;28;20469;-64
2023/12/27 03:03:50;;;;;;;19.70;10.85;;;;;;;-146.58;100.00;69501.63;5028966;28;20026;-63
2023/12/27 03:06:16;;;;;;;22.15;11.27;;;;;;;-146.58;100.00;69501.63;5030686;28;20025;-63
2023/12/27 03:08:41;;;;;;;15.02;10.55;;;;;;;-146.58;100.00;69501.63;5028545;28;20151;-62
2023/12/27 03:11:06;;;;;;;12.15;10.70;;;;;;;-146.58;100.00;69501.63;5030962;28;20067;-63
2023/12/27 03:13:33;;;;;;;15.57;11.88;;;;;;;-146.58;100.00;69501.63;5030407;28;20026;-63
2023/12/27 03:15:58;;;;;;;17.25;12.77;;;;;;;-146.58;100.00;69501.63;5028817;28;20129;-63
2023/12/27 03:18:23;;;;;;;22.05;14.68;;;;;;;-146.58;100.00;69501.63;5030617;28;20033;-63
2023/12/27 03:20:49;;;;;;;17.48;12.82;;;;;;;-146.58;100.00;69501.63;5048513;28;20056;-64
2023/12/27 03:23:14;;;;;;;21.77;14.90;;;;;;;-146.58;100.00;69501.63;5049802;28;20450;-63
2023/12/27 03:25:40;;;;;;;18.92;14.43;;;;;;;-146.58;100.00;69501.63;5048848;28;20076;-63
2023/12/27 03:28:05;;;;;;;18.73;14.98;;;;;;;-146.58;100.00;69501.63;5049933;28;20079;-63
2023/12/27 03:30:30;;;;;;;21.05;13.00;;;;;;;-146.58;100.00;69501.63;5048259;28;20066;-63
2023/12/27 03:32:57;;;;;;;18.85;11.48;;;;;;;-146.58;100.00;69501.63;5038041;28;20392;-63
2023/12/27 03:35:22;;;;;;;12.85;11.57;;;;;;;-146.58;100.00;69501.63;5028714;28;20045;-64
2023/12/27 03:37:47;;;;;;;21.98;13.40;;;;;;;-146.58;100.00;69501.63;5030313;28;20114;-64
2023/12/27 03:40:13;;;;;;;14.60;12.20;;;;;;;-146.58;100.00;69501.63;5030129;28;20045;-63
2023/12/27 03:42:38;;;;;;;24.92;13.93;;;;;;;-146.58;100.00;69501.63;5039090;28;20492;-63
2023/12/27 03:45:04;;;;;;;25.55;13.43;;;;;;;-146.58;100.00;69501.63;5042652;28;20052;-63
2023/12/27 03:47:29;;;;;;;19.30;13.98;;;;;;;-146.58;100.00;69501.63;5033243;28;20510;-63
2023/12/27 03:49:55;;;;;;;17.00;13.10;;;;;;;-146.58;100.00;69501.63;5044666;28;20103;-62
2023/12/27 03:52:20;;;;;;;22.83;13.68;;;;;;;-146.58;100.00;69501.63;5053647;28;20017;-62
2023/12/27 03:54:45;;;;;;;20.00;12.73;;;;;;;-146.58;100.00;69501.63;5051675;28;20041;-62
2023/12/27 03:57:11;;;;;;;18.85;15.25;;;;;;;-146.58;100.00;69501.63;5053561;28;20040;-62
2023/12/27 03:59:37;;;;;;;19.98;15.48;;;;;;;-146.58;100.00;69501.63;5049334;28;20094;-62
2023/12/27 04:02:03;;;;;;;20.63;15.48;;;;;;;-146.58;100.00;69501.63;5033597;28;20033;-62
2023/12/27 04:04:29;;;;;;;21.77;15.75;;;;;;;-146.58;100.00;69501.63;5042644;28;20049;-63
2023/12/27 04:06:54;;;;;;;28.02;16.33;;;;;;;-146.58;100.00;69501.63;5053607;28;20021;-63
2023/12/27 04:09:20;;;;;;;25.63;17.63;;;;;;;-146.58;100.00;69501.63;5051482;28;20044;-64
2023/12/27 04:11:45;;;;;;;34.75;18.23;;;;;;;-146.58;100.00;69501.63;5052991;28;20047;-63
2023/12/27 04:14:14;;;;;;;32.50;17.73;;;;;;;-146.58;100.00;69501.63;5051549;28;20040;-63
2023/12/27 04:16:40;;;;;;;23.73;17.08;;;;;;;-146.58;100.00;69501.63;5052784;28;20025;-64
2023/12/27 04:19:05;;;;;;;27.40;18.83;;;;;;;-146.58;100.00;69501.63;5045793;28;20493;-64
2023/12/27 04:21:31;;;;;;;31.77;18.25;;;;;;;-146.58;100.00;69501.63;5032879;28;20030;-63
2023/12/27 04:23:56;;;;;;;23.95;18.45;;;;;;;-146.58;100.00;69501.63;5031257;28;20045;-64
2023/12/27 04:26:22;;;;;;;40.63;18.48;;;;;;;-146.58;100.00;69501.63;5032762;28;20032;-64
2023/12/27 04:28:47;;;;;;;30.00;17.27;;;;;;;-146.58;100.00;69501.63;5031485;28;20032;-64
2023/12/27 04:31:13;;;;;;;30.55;18.83;;;;;;;-146.58;100.00;69501.63;5032484;28;20075;-64
2023/12/27 04:33:38;;;;;;;24.77;17.20;;;;;;;-146.58;100.00;69501.63;5036557;28;20021;-64
2023/12/27 04:36:05;;;;;;;27.35;18.92;;;;;;;-146.58;100.00;69501.63;5051377;28;20049;-64
2023/12/27 04:38:30;;;;;;;31.88;18.95;;;;;;;-146.58;100.00;69501.63;5052122;28;20059;-64
2023/12/27 04:40:56;;;;;;;39.25;21.17;;;;;;;-146.58;100.00;69501.63;5051254;28;20037;-63
2023/12/27 04:43:21;;;;;;;37.83;20.88;;;;;;;-146.58;100.00;69501.63;5036620;28;20451;-63
2023/12/27 04:45:48;;;;;;;38.30;21.80;;;;;;;-146.58;100.00;69501.63;5030964;28;20060;-62
2023/12/27 04:48:14;;;;;;;35.85;20.20;;;;;;;-146.58;100.00;69501.63;5032708;28;20453;-62
2023/12/27 04:50:39;;;;;;;32.75;22.05;;;;;;;-146.58;100.00;69501.63;5046083;28;20061;-62
2023/12/27 04:53:05;;;;;;;33.78;21.42;;;;;;;-146.58;100.00;69501.63;5038167;28;20021;-62
2023/12/27 04:55:30;;;;;;;29.23;19.90;;;;;;;-146.58;100.00;69501.63;5030868;28;20460;-62
2023/12/27 04:57:55;;;;;;;40.13;22.38;;;;;;;-146.58;100.00;69501.63;5032489;28;20033;-62
2023/12/27 05:00:22;;;;;;;32.90;19.23;;;;;;;-146.58;100.00;69501.63;5030380;28;20064;-62
2023/12/27 05:02:48;;;;;;;23.83;17.92;;;;;;;-146.58;100.00;69501.63;5032566;28;20029;-62
2023/12/27 05:05:13;;;;;;;41.83;22.88;;;;;;;-146.58;100.00;69501.63;5031821;28;20034;-62
2023/12/27 05:07:39;;;;;;;39.30;21.08;;;;;;;-146.58;100.00;69501.63;5051381;28;20033;-62
2023/12/27 05:10:04;;;;;;;44.97;21.35;;;;;;;-146.58;100.00;69501.63;5050623;28;20560;-62
2023/12/27 05:12:30;;;;;;;34.65;24.75;;;;;;;-146.58;100.00;69501.63;5045523;28;20060;-66
2023/12/27 05:14:55;;;;;;;39.00;23.08;;;;;;;-146.58;100.00;69501.63;5029486;28;20098;-65
2023/12/27 05:17:22;;;;;;;43.25;26.45;;;;;;;-146.58;100.00;69501.63;5031909;28;20395;-65
2023/12/27 05:19:47;;;;;;;37.13;21.80;;;;;;;-146.58;100.00;69501.63;5030737;28;20057;-65
2023/12/27 05:22:12;;;;;;;35.55;20.02;;;;;;;-146.58;100.00;69501.63;5031071;28;20025;-66
2023/12/27 05:24:41;;;;;;;46.83;23.67;;;;;;;-146.58;100.00;69501.63;5029868;28;20041;-65
2023/12/27 05:27:06;;;;;;;33.35;21.10;;;;;;;-146.58;100.00;69501.63;5030717;28;20025;-65
2023/12/27 05:29:33;;;;;;;34.55;20.80;;;;;;;-146.58;100.00;69501.63;5029728;28;20685;-64
2023/12/27 05:31:58;;;;;;;39.28;22.75;;;;;;;-146.58;100.00;69501.63;5031970;28;20104;-64
2023/12/27 05:34:24;;;;;;;40.50;20.27;;;;;;;-146.58;100.00;69501.63;5030052;28;20041;-64
2023/12/27 05:36:49;;;;;;;34.13;21.42;;;;;;;-146.58;100.00;69501.63;5031316;28;20049;-64
2023/12/27 05:39:15;;;;;;;32.25;22.08;;;;;;;-146.58;100.00;69501.63;5029817;28;20038;-64
2023/12/27 05:41:40;;;;;;;40.97;21.83;;;;;;;-146.58;100.00;69501.63;5031590;28;20029;-64
2023/12/27 05:44:05;;;;;;;40.75;20.40;;;;;;;-146.58;100.00;69501.63;5028748;28;20041;-64
2023/12/27 05:46:35;;;;;;;38.80;21.52;;;;;;;-146.58;100.00;69501.63;5032059;28;20039;-64
2023/12/27 05:49:00;;;;;;;37.60;21.13;;;;;;;-146.58;100.00;69501.63;5047198;28;20121;-64
2023/12/27 05:51:25;;;;;;;32.13;19.00;;;;;;;-146.58;100.00;69501.63;5035425;28;20108;-64
2023/12/27 05:53:51;;;;;;;40.03;22.40;;;;;;;-146.58;100.00;69501.63;5025470;28;20036;-64
2023/12/27 05:56:16;;;;;;;63.03;25.60;;;;;;;-146.58;100.00;69501.63;5030830;28;20030;-64
2023/12/27 05:58:42;;;;;;;37.78;21.02;;;;;;;-146.58;100.00;69501.63;5032238;28;20025;-64
2023/12/27 06:01:09;;;;;;;47.05;23.27;;;;;;;-146.58;100.00;69501.63;5036932;28;20040;-64
2023/12/27 06:03:34;;;;;;;35.60;21.02;;;;;;;-146.58;100.00;69501.63;5030145;28;20076;-64
2023/12/27 06:06:00;;;;;;;37.70;21.77;;;;;;;-146.58;100.00;69501.63;5028822;28;20520;-64
2023/12/27 06:08:26;;;;;;;46.42;24.40;;;;;;;-146.58;100.00;69501.63;5033173;28;20520;-64
2023/12/27 06:10:51;;;;;;;43.80;20.33;;;;;;;-146.58;100.00;69501.63;5029338;28;20041;-65
2023/12/27 06:13:17;;;;;;;36.95;20.60;;;;;;;-146.58;100.00;69501.63;5030586;28;20076;-65
2023/12/27 06:15:42;;;;;;;38.10;22.30;;;;;;;-146.58;100.00;69501.63;5027405;28;20045;-65
2023/12/27 06:18:08;;;;;;;52.85;24.27;;;;;;;-146.58;100.00;69501.63;5030379;28;20079;-64
2023/12/27 06:20:33;;;;;;;36.88;21.98;;;;;;;-146.58;100.00;69501.63;5028801;28;20044;-65
2023/12/27 06:22:59;;;;;;;33.70;22.20;;;;;;;-146.58;100.00;69501.63;5028903;28;20022;-65
2023/12/27 06:25:24;;;;;;;41.53;21.95;;;;;;;-146.58;100.00;69501.63;5028738;28;20037;-65
2023/12/27 06:27:49;;;;;;;40.83;23.48;;;;;;;-146.58;100.00;69501.63;5030482;28;20473;-65
2023/12/27 06:30:15;;;;;;;43.50;26.52;;;;;;;-146.58;100.00;69501.63;5028280;28;20041;-64
2023/12/27 06:32:40;;;;;;;47.33;25.50;;;;;;;-146.58;100.00;69501.63;5029947;28;20116;-65
2023/12/27 06:35:06;;;;;;;54.35;24.95;;;;;;;-146.58;100.00;69501.63;5028803;28;20045;-65
2023/12/27 06:37:31;;;;;;;58.35;27.88;;;;;;;-146.58;100.00;69501.63;5029766;28;20073;-65
2023/12/27 06:39:57;;;;;;;38.95;24.58;;;;;;;-146.58;100.00;69501.63;5028086;28;20076;-65
2023/12/27 06:42:22;;;;;;;52.17;24.50;;;;;;;-146.58;100.00;69501.63;5029974;28;20079;-65
2023/12/27 06:44:48;;;;;;;42.72;23.80;;;;;;;-146.58;100.00;69501.63;5028373;28;20046;-65
2023/12/27 06:47:13;;;;;;;57.55;25.65;;;;;;;-146.58;100.00;69501.63;5029588;28;20022;-65
2023/12/27 06:49:38;;;;;;;53.67;26.90;;;;;;;-146.58;100.00;69501.63;5028006;28;20504;-63
2023/12/27 06:52:04;;;;;;;44.00;25.30;;;;;;;-146.58;100.00;69501.63;5044475;28;20028;-63
2023/12/27 06:54:29;;;;;;;42.97;22.65;;;;;;;-146.58;100.00;69501.63;5047107;28;20043;-63
2023/12/27 06:56:55;;;;;;;49.78;26.27;;;;;;;-146.58;100.00;69501.63;5050203;28;20029;-63
2023/12/27 06:59:20;;;;;;;43.53;24.50;;;;;;;-146.58;100.00;69501.63;5031312;28;20037;-63
2023/12/27 07:01:45;;;;;;;53.42;25.83;;;;;;;-146.58;100.00;69501.63;5046766;28;20017;-63
2023/12/27 07:04:11;;;;;;;34.53;22.38;;;;;;;-146.58;100.00;69501.63;5029720;28;20049;-63
2023/12/27 07:06:36;;;;;;;55.88;23.08;;;;;;;-146.58;100.00;69501.63;5033009;28;20484;-63
2023/12/27 07:09:04;;;;;;;36.58;20.63;;;;;;;-146.58;100.00;69501.63;5042621;28;20563;-63
2023/12/27 07:11:29;;;;;;;59.60;23.98;;;;;;;-146.58;100.00;69501.63;5041159;28;20037;-65
2023/12/27 07:13:54;;;;;;;38.67;23.83;;;;;;;-146.58;100.00;69501.63;5029677;28;20017;-65
2023/12/27 07:16:20;;;;;;;42.50;21.52;;;;;;;-146.58;100.00;69501.63;5031407;28;20468;-65
2023/12/27 07:18:45;;;;;;;52.25;22.15;;;;;;;-146.58;100.00;69501.63;5033004;28;20044;-63
2023/12/27 07:21:12;;;;;;;45.92;25.20;;;;;;;-146.58;100.00;69501.63;5044342;28;20211;-64
2023/12/27 07:23:37;;;;;;;50.85;23.98;;;;;;;-146.58;100.00;69501.63;5047030;28;20112;-63
2023/12/27 07:26:04;;;;;;;41.60;19.95;;;;;;;-146.58;100.00;69501.63;5047060;28;20037;-63
2023/12/27 07:28:30;;;;;;;38.28;22.95;;;;;;;-146.58;100.00;69501.63;5032840;28;20554;-63
2023/12/27 07:30:57;;;;;;;54.70;21.42;;;;;;;-146.58;100.00;69501.63;5031058;28;20053;-63
2023/12/27 07:33:22;;;;;;;46.90;22.05;;;;;;;-146.58;100.00;69501.63;5032992;28;20489;-63
2023/12/27 07:35:48;;;;;;;47.25;21.27;;;;;;;-146.58;100.00;69501.63;5031696;28;20048;-63
2023/12/27 07:38:13;;;;;;;39.63;19.58;;;;;;;-146.58;100.00;69501.63;5032469;28;20049;-63
2023/12/27 07:40:40;;;;;;;34.05;20.08;;;;;;;-146.58;100.00;69501.63;5037227;28;20041;-63
2023/12/27 07:43:06;;;;;;;37.70;19.80;;;;;;;-146.58;100.00;69501.63;5037635;28;20033;-63
2023/12/27 07:45:33;;;;;;;36.92;21.92;;;;;;;-146.58;100.00;69501.63;5030493;28;20385;-63
2023/12/27 07:47:58;;;;;;;35.75;20.98;;;;;;;-146.58;100.00;69501.63;5034490;28;20032;-63
2023/12/27 07:50:23;;;;;;;42.38;20.63;;;;;;;-146.58;100.00;69501.63;5045731;28;20037;-63
2023/12/27 07:52:49;;;;;;;36.90;19.33;;;;;;;-146.58;100.00;69501.63;5052172;28;20028;-63
2023/12/27 07:55:14;;;;;;;29.83;21.02;;;;;;;-146.58;100.00;69501.63;5050003;28;20136;-63
2023/12/27 07:57:41;;;;;;;44.70;18.98;;;;;;;-146.58;100.00;69501.63;5047376;28;20040;-63
2023/12/27 08:00:08;;;;;;;42.05;19.95;;;;;;;-146.58;100.00;69501.63;5045753;28;20125;-63
2023/12/27 08:02:33;;;;;;;39.65;18.67;;;;;;;-146.58;100.00;69501.63;5037017;28;20033;-63
2023/12/27 08:04:58;;;;;;;30.63;17.17;;;;;;;-146.58;100.00;69501.63;5029912;28;20378;-63
2023/12/27 08:07:24;;;;;;;28.13;19.42;;;;;;;-146.58;100.00;69501.63;5032774;28;20473;-63
2023/12/27 08:09:49;;;;;;;28.70;19.15;;;;;;;-146.58;100.00;69501.63;5030380;28;20045;-67
2023/12/27 08:12:14;;;;;;;36.55;19.02;;;;;;;-146.58;100.00;69501.63;5028266;28;20020;-62
2023/12/27 08:14:40;;;;;;;33.72;17.13;;;;;;;-146.58;100.00;69501.63;5028026;28;20048;-62
2023/12/27 08:17:05;;;;;;;36.72;20.90;;;;;;;-146.58;100.00;69501.63;5032175;28;20025;-62
2023/12/27 08:19:31;;;;;;;37.53;18.60;;;;;;;-146.58;100.00;69501.63;5031523;28;20060;-62
2023/12/27 08:21:56;;;;;;;26.33;15.18;;;;;;;-146.58;100.00;69501.63;5032131;28;20029;-62
2023/12/27 08:24:21;;;;;;;42.33;17.25;;;;;;;-146.58;100.00;69501.63;5031137;28;20076;-62
2023/12/27 08:26:47;;;;;;;35.75;18.73;;;;;;;-146.58;100.00;69501.63;5031988;28;20481;-62
2023/12/27 08:29:12;;;;;;;32.25;17.75;;;;;;;-146.58;100.00;69501.63;5030064;28;20041;-62
2023/12/27 08:31:37;;;;;;;33.83;19.38;;;;;;;-146.58;100.00;69501.63;5030274;28;20083;-63
2023/12/27 08:34:04;;;;;;;39.80;16.38;;;;;;;-146.58;100.00;69501.63;5030683;28;20045;-62
2023/12/27 08:36:32;;;;;;;33.88;18.02;;;;;;;-146.58;100.00;69501.63;5031159;28;20021;-62
2023/12/27 08:38:58;;;;;;;43.72;17.10;;;;;;;-146.58;100.00;69501.63;5029943;28;20021;-62
2023/12/27 08:41:24;;;;;;;34.90;16.52;;;;;;;-146.58;100.00;69501.63;5028345;28;20033;-62
2023/12/27 08:43:51;;;;;;;38.40;19.23;;;;;;;-146.58;100.00;69501.63;5029748;28;20025;-62
2023/12/27 08:46:20;;;;;;;41.70;20.33;;;;;;;-146.58;100.00;69501.63;5032397;28;20055;-62
2023/12/27 08:48:46;;;;;;;36.50;19.75;;;;;;;-146.58;100.00;69501.63;5029435;28;20033;-62
2023/12/27 08:51:12;;;;;;;40.60;16.45;;;;;;;-146.58;100.00;69501.63;5032030;28;20049;-62
2023/12/27 08:53:37;;;;;;;50.53;21.50;;;;;;;-146.58;100.00;69501.63;5031760;28;20049;-62
2023/12/27 08:56:02;;;;;;;31.88;15.48;;;;;;;-146.58;100.00;69501.63;5029815;28;20455;-62
2023/12/27 08:58:28;;;;;;;42.22;20.05;;;;;;;-146.58;100.00;69501.63;5030622;28;20049;-62
2023/12/27 09:00:53;;;;;;;44.83;18.50;;;;;;;-146.58;100.00;69501.63;5029575;28;20041;-62
2023/12/27 09:03:19;;;;;;;40.15;18.45;;;;;;;-146.58;100.00;69501.63;5031832;28;20495;-62
2023/12/27 09:05:45;;;;;;;41.58;15.50;;;;;;;-146.58;100.00;69501.63;5028823;28;20099;-63
2023/12/27 09:08:10;;;;;;;34.92;17.30;;;;;;;-146.58;100.00;69501.63;5031630;28;20033;-62
2023/12/27 09:10:35;;;;;;;48.30;20.45;;;;;;;-146.58;100.00;69501.63;5029460;28;20396;-62
2023/12/27 09:13:01;;;;;;;32.80;15.95;;;;;;;-146.58;100.00;69501.63;5030800;28;20037;-62
2023/12/27 09:15:26;;;;;;;45.60;20.05;;;;;;;-146.58;100.00;69501.63;5029603;28;20459;-62
2023/12/27 09:17:51;;;;;;;52.15;21.00;;;;;;;-146.58;100.00;69501.63;5031724;28;20028;-62
2023/12/27 09:20:17;;;;;;;36.78;18.85;;;;;;;-146.58;100.00;69501.63;5028987;28;20038;-62
2023/12/27 09:22:43;;;;;;;37.20;17.80;;;;;;;-146.58;100.00;69501.63;5030825;28;20034;-62
2023/12/27 09:25:08;;;;;;;55.58;23.40;;;;;;;-146.58;100.00;69501.63;5029792;28;20046;-62
2023/12/27 09:27:33;;;;;;;37.08;17.75;;;;;;;-146.58;100.00;69501.63;5029425;28;20463;-62
2023/12/27 09:29:59;;;;;;;38.60;20.75;;;;;;;-146.58;100.00;69501.63;5029409;28;20405;-62
2023/12/27 09:32:24;;;;;;;44.70;21.65;;;;;;;-146.58;100.00;69501.63;5030686;28;20481;-62
2023/12/27 09:34:49;;;;;;;41.42;20.67;;;;;;;-146.58;100.00;69501.63;5028166;28;20072;-62
2023/12/27 09:37:15;;;;;;;40.47;18.25;;;;;;;-146.58;100.00;69501.63;5029909;28;20052;-62
2023/12/27 09:39:40;;;;;;;43.92;18.92;;;;;;;-146.58;100.00;69501.63;5029252;28;20071;-62
2023/12/27 09:42:06;;;;;;;35.03;16.70;;;;;;;-146.58;100.00;69501.63;5029232;28;20041;-62
2023/12/27 09:44:34;;;;;;;37.70;20.95;;;;;;;-146.58;100.00;69501.63;5045387;28;20126;-62
2023/12/27 09:47:00;;;;;;;57.42;21.15;;;;;;;-146.58;100.00;69501.63;5051088;28;20102;-62
2023/12/27 09:49:27;;;;;;;35.90;18.30;;;;;;;-146.58;100.00;69501.63;5048099;28;20037;-62
2023/12/27 09:51:52;;;;;;;48.63;22.73;;;;;;;-146.58;100.00;69501.63;5050892;28;20111;-62
2023/12/27 09:54:20;;;;;;;32.40;19.95;;;;;;;-146.58;100.00;69501.63;5049726;28;20115;-62
2023/12/27 09:56:47;;;;;;;43.40;21.17;;;;;;;-146.58;100.00;69501.63;5033830;28;20033;-62
2023/12/27 09:59:22;;;;;;;45.63;21.52;;;;;;;-146.58;100.00;69501.63;5029506;28;20049;-62
2023/12/27 10:01:50;;;;;;;38.83;19.63;;;;;;;-146.58;100.00;69501.63;5030992;28;20036;-62
2023/12/27 10:04:25;;;;;;;34.03;18.08;;;;;;;-146.58;100.00;69501.63;5041932;28;20045;-62
2023/12/27 10:06:52;;;;;;;34.03;19.08;;;;;;;-146.58;100.00;69501.63;5050804;28;20116;-61
2023/12/27 10:09:18;;;;;;;37.53;20.42;;;;;;;-146.58;100.00;69501.63;5044272;28;20045;-61
2023/12/27 10:11:44;;;;;;;30.92;17.33;;;;;;;-146.58;100.00;69501.63;5029099;28;20025;-61
2023/12/27 10:14:12;;;;;;;33.33;21.58;;;;;;;-146.58;100.00;69501.63;5029598;28;20069;-61
2023/12/27 10:16:38;;;;;;;36.85;20.67;;;;;;;-146.58;100.00;69501.63;5029238;28;20104;-61
2023/12/27 10:19:04;;;;;;;33.33;22.38;;;;;;;-146.58;100.00;69501.63;5027208;28;20095;-60
2023/12/27 10:21:43;;;;;;;39.72;20.98;;;;;;;-146.58;100.00;69501.63;5023422;28;20053;-61
2023/12/27 10:24:09;;;;;;;;;;;;;;;-146.58;100.00;69501.63;5020188;28;20083;-62
2023/12/27 10:26:35;;;;;;;36.13;18.95;;;;;;;-146.58;100.00;69501.63;5028630;28;19913;-62
2023/12/27 10:29:01;;;;;;;45.25;20.02;;;;;;;-146.58;100.00;69501.63;5028519;28;20060;-61
2023/12/27 10:31:26;;;;;;;28.65;17.35;;;;;;;-146.58;100.00;69501.63;5030298;28;20108;-62
2023/12/27 10:33:52;;;;;;;32.63;20.85;;;;;;;-146.58;100.00;69501.63;5027409;28;20036;-61
2023/12/27 10:36:17;;;;;;;35.25;20.65;;;;;;;-146.58;100.00;69501.63;5030365;28;20060;-61
2023/12/27 10:38:45;;;;;;;36.50;18.90;;;;;;;-146.58;100.00;69501.63;5028281;28;20527;-61
2023/12/27 10:41:10;;;;;;;38.03;21.45;;;;;;;-146.58;100.00;69501.63;5028322;28;20044;-61
2023/12/27 10:43:35;;;;;;;33.03;18.80;;;;;;;-146.58;100.00;69501.63;5029649;28;20026;-61
2023/12/27 10:46:08;;;;;;;30.73;18.65;;;;;;;-146.58;100.00;69501.63;5026482;28;20072;-61
2023/12/27 10:48:37;;;;;;;34.08;22.27;;;;;;;-146.58;100.00;69501.63;5025510;28;20663;-61